sensor_id;sensor_type;location;lat;lon;timestamp;P1;durP1;ratioP1;P2;durP2;ratioP2
38427;SDS011;24211;49.980;19.776;2023-12-04T00:00:03;13.80;;;5.72;;
38427;SDS011;24211;49.980;19.776;2023-12-04T00:02:58;14.95;;;5.85;;
38427;SDS011;24211;49.980;19.776;2023-12-04T00:05:37;14.35;;;5.55;;
38427;SDS011;24211;49.980;19.776;2023-12-04T00:08:05;13.73;;;5.20;;
38427;SDS011;24211;49.980;19.776;2023-12-04T00:10:32;11.32;;;4.85;;
38427;SDS011;24211;49.980;19.776;2023-12-04T00:13:00;13.07;;;5.22;;
38427;SDS011;24211;49.980;19.776;2023-12-04T00:15:27;12.32;;;4.85;;
38427;SDS011;24211;49.980;19.776;2023-12-04T00:17:55;13.02;;;5.45;;
38427;SDS011;24211;49.980;19.776;2023-12-04T00:20:22;12.77;;;5.40;;
38427;SDS011;24211;49.980;19.776;2023-12-04T00:22:50;14.80;;;5.32;;
38427;SDS011;24211;49.980;19.776;2023-12-04T00:25:18;13.82;;;5.43;;
38427;SDS011;24211;49.980;19.776;2023-12-04T00:27:45;11.98;;;4.90;;
38427;SDS011;24211;49.980;19.776;2023-12-04T00:30:13;12.52;;;5.10;;
38427;SDS011;24211;49.980;19.776;2023-12-04T00:32:40;13.52;;;5.13;;
38427;SDS011;24211;49.980;19.776;2023-12-04T00:35:08;11.63;;;4.68;;
38427;SDS011;24211;49.980;19.776;2023-12-04T00:37:35;11.68;;;4.88;;
38427;SDS011;24211;49.980;19.776;2023-12-04T00:40:05;12.38;;;4.63;;
38427;SDS011;24211;49.980;19.776;2023-12-04T00:42:36;10.13;;;4.28;;
38427;SDS011;24211;49.980;19.776;2023-12-04T00:45:04;9.18;;;4.45;;
38427;SDS011;24211;49.980;19.776;2023-12-04T00:47:32;12.15;;;4.38;;
38427;SDS011;24211;49.980;19.776;2023-12-04T00:50:00;11.65;;;4.50;;
38427;SDS011;24211;49.980;19.776;2023-12-04T00:52:27;13.02;;;4.57;;
38427;SDS011;24211;49.980;19.776;2023-12-04T00:54:55;8.60;;;3.90;;
38427;SDS011;24211;49.980;19.776;2023-12-04T00:57:23;9.65;;;4.22;;
38427;SDS011;24211;49.980;19.776;2023-12-04T00:59:50;10.98;;;4.68;;
38427;SDS011;24211;49.980;19.776;2023-12-04T01:02:18;10.23;;;4.43;;
38427;SDS011;24211;49.980;19.776;2023-12-04T01:04:45;10.07;;;4.32;;
38427;SDS011;24211;49.980;19.776;2023-12-04T01:07:13;10.48;;;4.53;;
38427;SDS011;24211;49.980;19.776;2023-12-04T01:09:40;9.75;;;4.22;;
38427;SDS011;24211;49.980;19.776;2023-12-04T01:12:08;11.13;;;4.60;;
38427;SDS011;24211;49.980;19.776;2023-12-04T01:14:35;10.75;;;4.25;;
38427;SDS011;24211;49.980;19.776;2023-12-04T01:17:05;10.32;;;4.20;;
38427;SDS011;24211;49.980;19.776;2023-12-04T01:19:33;10.85;;;4.43;;
38427;SDS011;24211;49.980;19.776;2023-12-04T01:22:00;11.50;;;4.53;;
38427;SDS011;24211;49.980;19.776;2023-12-04T01:24:28;12.95;;;4.88;;
38427;SDS011;24211;49.980;19.776;2023-12-04T01:26:56;11.30;;;4.63;;
38427;SDS011;24211;49.980;19.776;2023-12-04T01:29:23;14.63;;;5.28;;
38427;SDS011;24211;49.980;19.776;2023-12-04T01:31:51;14.52;;;5.28;;
38427;SDS011;24211;49.980;19.776;2023-12-04T01:34:18;11.07;;;4.70;;
38427;SDS011;24211;49.980;19.776;2023-12-04T01:36:45;13.43;;;5.28;;
38427;SDS011;24211;49.980;19.776;2023-12-04T01:39:13;15.35;;;6.00;;
38427;SDS011;24211;49.980;19.776;2023-12-04T01:41:41;14.63;;;5.38;;
38427;SDS011;24211;49.980;19.776;2023-12-04T01:44:08;14.63;;;5.38;;
38427;SDS011;24211;49.980;19.776;2023-12-04T01:46:36;15.57;;;5.30;;
38427;SDS011;24211;49.980;19.776;2023-12-04T01:49:04;12.98;;;5.30;;
38427;SDS011;24211;49.980;19.776;2023-12-04T01:51:32;13.32;;;5.22;;
38427;SDS011;24211;49.980;19.776;2023-12-04T01:54:00;14.70;;;5.65;;
38427;SDS011;24211;49.980;19.776;2023-12-04T01:56:33;11.85;;;4.72;;
38427;SDS011;24211;49.980;19.776;2023-12-04T01:59:03;13.93;;;5.50;;
38427;SDS011;24211;49.980;19.776;2023-12-04T02:01:33;10.98;;;5.05;;
38427;SDS011;24211;49.980;19.776;2023-12-04T02:04:20;12.30;;;4.97;;
38427;SDS011;24211;49.980;19.776;2023-12-04T02:07:02;12.80;;;4.90;;
38427;SDS011;24211;49.980;19.776;2023-12-04T02:09:30;12.82;;;5.20;;
38427;SDS011;24211;49.980;19.776;2023-12-04T02:11:58;12.07;;;4.93;;
38427;SDS011;24211;49.980;19.776;2023-12-04T02:14:30;11.93;;;5.13;;
38427;SDS011;24211;49.980;19.776;2023-12-04T02:16:59;13.13;;;4.65;;
38427;SDS011;24211;49.980;19.776;2023-12-04T02:19:31;12.15;;;4.68;;
38427;SDS011;24211;49.980;19.776;2023-12-04T02:21:59;11.35;;;4.32;;
38427;SDS011;24211;49.980;19.776;2023-12-04T02:24:28;12.60;;;4.90;;
38427;SDS011;24211;49.980;19.776;2023-12-04T02:27:04;11.90;;;4.80;;
38427;SDS011;24211;49.980;19.776;2023-12-04T02:29:49;12.68;;;5.13;;
38427;SDS011;24211;49.980;19.776;2023-12-04T02:32:28;13.80;;;4.72;;
38427;SDS011;24211;49.980;19.776;2023-12-04T02:37:30;11.30;;;4.40;;
38427;SDS011;24211;49.980;19.776;2023-12-04T02:40:00;12.48;;;4.80;;
38427;SDS011;24211;49.980;19.776;2023-12-04T02:42:32;13.68;;;5.10;;
38427;SDS011;24211;49.980;19.776;2023-12-04T02:45:01;14.57;;;5.50;;
38427;SDS011;24211;49.980;19.776;2023-12-04T02:47:34;14.93;;;5.38;;
38427;SDS011;24211;49.980;19.776;2023-12-04T02:50:02;12.27;;;4.85;;
38427;SDS011;24211;49.980;19.776;2023-12-04T02:52:30;10.95;;;4.78;;
38427;SDS011;24211;49.980;19.776;2023-12-04T02:55:00;10.75;;;4.78;;
38427;SDS011;24211;49.980;19.776;2023-12-04T02:57:37;11.95;;;4.60;;
38427;SDS011;24211;49.980;19.776;2023-12-04T03:00:05;12.85;;;5.00;;
38427;SDS011;24211;49.980;19.776;2023-12-04T03:02:33;11.23;;;4.68;;
38427;SDS011;24211;49.980;19.776;2023-12-04T03:05:01;11.02;;;4.47;;
38427;SDS011;24211;49.980;19.776;2023-12-04T03:07:29;12.60;;;4.72;;
38427;SDS011;24211;49.980;19.776;2023-12-04T03:09:56;11.00;;;4.60;;
38427;SDS011;24211;49.980;19.776;2023-12-04T03:12:24;11.00;;;4.60;;
38427;SDS011;24211;49.980;19.776;2023-12-04T03:14:51;10.82;;;4.68;;
38427;SDS011;24211;49.980;19.776;2023-12-04T03:17:19;11.50;;;4.47;;
38427;SDS011;24211;49.980;19.776;2023-12-04T03:19:46;11.25;;;4.72;;
38427;SDS011;24211;49.980;19.776;2023-12-04T03:22:14;10.50;;;4.53;;
38427;SDS011;24211;49.980;19.776;2023-12-04T03:24:42;11.02;;;4.63;;
38427;SDS011;24211;49.980;19.776;2023-12-04T03:27:10;12.18;;;5.10;;
38427;SDS011;24211;49.980;19.776;2023-12-04T03:29:37;10.45;;;4.57;;
38427;SDS011;24211;49.980;19.776;2023-12-04T03:32:05;12.75;;;5.10;;
38427;SDS011;24211;49.980;19.776;2023-12-04T03:34:32;11.50;;;5.25;;
38427;SDS011;24211;49.980;19.776;2023-12-04T03:37:00;12.55;;;4.82;;
38427;SDS011;24211;49.980;19.776;2023-12-04T03:39:27;11.40;;;4.80;;
38427;SDS011;24211;49.980;19.776;2023-12-04T03:41:55;11.05;;;4.90;;
38427;SDS011;24211;49.980;19.776;2023-12-04T03:44:22;13.65;;;5.45;;
38427;SDS011;24211;49.980;19.776;2023-12-04T03:46:50;12.52;;;4.90;;
38427;SDS011;24211;49.980;19.776;2023-12-04T03:49:18;12.85;;;5.60;;
38427;SDS011;24211;49.980;19.776;2023-12-04T03:51:46;13.40;;;5.22;;
38427;SDS011;24211;49.980;19.776;2023-12-04T03:54:13;12.68;;;5.18;;
38427;SDS011;24211;49.980;19.776;2023-12-04T03:56:41;11.73;;;5.18;;
38427;SDS011;24211;49.980;19.776;2023-12-04T03:59:08;11.77;;;4.85;;
38427;SDS011;24211;49.980;19.776;2023-12-04T04:01:37;11.80;;;5.13;;
38427;SDS011;24211;49.980;19.776;2023-12-04T04:04:05;12.68;;;5.30;;
38427;SDS011;24211;49.980;19.776;2023-12-04T04:06:32;11.25;;;5.43;;
38427;SDS011;24211;49.980;19.776;2023-12-04T04:09:00;12.70;;;5.10;;
38427;SDS011;24211;49.980;19.776;2023-12-04T04:11:27;12.32;;;4.80;;
38427;SDS011;24211;49.980;19.776;2023-12-04T04:13:56;11.30;;;4.70;;
38427;SDS011;24211;49.980;19.776;2023-12-04T04:22:05;11.32;;;4.82;;
38427;SDS011;24211;49.980;19.776;2023-12-04T04:24:35;10.40;;;4.68;;
38427;SDS011;24211;49.980;19.776;2023-12-04T04:27:07;11.10;;;4.32;;
38427;SDS011;24211;49.980;19.776;2023-12-04T04:29:34;11.02;;;4.65;;
38427;SDS011;24211;49.980;19.776;2023-12-04T04:32:05;10.43;;;4.80;;
38427;SDS011;24211;49.980;19.776;2023-12-04T04:34:49;9.68;;;3.90;;
38427;SDS011;24211;49.980;19.776;2023-12-04T04:37:17;9.77;;;4.40;;
38427;SDS011;24211;49.980;19.776;2023-12-04T04:39:46;11.68;;;4.38;;
38427;SDS011;24211;49.980;19.776;2023-12-04T04:42:14;10.93;;;4.57;;
38427;SDS011;24211;49.980;19.776;2023-12-04T04:44:53;10.18;;;4.45;;
38427;SDS011;24211;49.980;19.776;2023-12-04T04:47:21;9.68;;;4.28;;
38427;SDS011;24211;49.980;19.776;2023-12-04T04:49:48;10.27;;;4.50;;
38427;SDS011;24211;49.980;19.776;2023-12-04T04:52:16;12.70;;;4.82;;
38427;SDS011;24211;49.980;19.776;2023-12-04T04:54:52;11.23;;;4.35;;
38427;SDS011;24211;49.980;19.776;2023-12-04T04:57:21;11.07;;;4.72;;
38427;SDS011;24211;49.980;19.776;2023-12-04T04:59:49;13.38;;;5.22;;
38427;SDS011;24211;49.980;19.776;2023-12-04T05:10:57;17.73;;;6.45;;
38427;SDS011;24211;49.980;19.776;2023-12-04T05:13:25;21.67;;;6.72;;
38427;SDS011;24211;49.980;19.776;2023-12-04T05:16:01;18.45;;;6.32;;
38427;SDS011;24211;49.980;19.776;2023-12-04T05:18:33;18.60;;;6.85;;
38427;SDS011;24211;49.980;19.776;2023-12-04T05:21:01;18.48;;;6.75;;
38427;SDS011;24211;49.980;19.776;2023-12-04T05:23:29;17.65;;;7.03;;
38427;SDS011;24211;49.980;19.776;2023-12-04T05:25:57;19.85;;;6.88;;
38427;SDS011;24211;49.980;19.776;2023-12-04T05:28:24;17.45;;;6.97;;
38427;SDS011;24211;49.980;19.776;2023-12-04T05:30:52;19.15;;;7.43;;
38427;SDS011;24211;49.980;19.776;2023-12-04T05:33:20;19.00;;;7.38;;
38427;SDS011;24211;49.980;19.776;2023-12-04T05:35:47;17.35;;;6.93;;
38427;SDS011;24211;49.980;19.776;2023-12-04T05:38:18;16.73;;;6.85;;
38427;SDS011;24211;49.980;19.776;2023-12-04T05:43:51;18.67;;;7.15;;
38427;SDS011;24211;49.980;19.776;2023-12-04T05:46:20;19.38;;;6.97;;
38427;SDS011;24211;49.980;19.776;2023-12-04T05:49:13;16.60;;;6.00;;
38427;SDS011;24211;49.980;19.776;2023-12-04T05:54:59;16.60;;;6.80;;
38427;SDS011;24211;49.980;19.776;2023-12-04T05:57:26;15.95;;;6.70;;
38427;SDS011;24211;49.980;19.776;2023-12-04T05:59:56;18.35;;;6.70;;
38427;SDS011;24211;49.980;19.776;2023-12-04T06:05:20;14.73;;;6.10;;
38427;SDS011;24211;49.980;19.776;2023-12-04T06:07:48;17.05;;;6.30;;
38427;SDS011;24211;49.980;19.776;2023-12-04T06:10:20;14.52;;;6.22;;
38427;SDS011;24211;49.980;19.776;2023-12-04T06:13:19;14.65;;;6.35;;
38427;SDS011;24211;49.980;19.776;2023-12-04T06:15:50;13.75;;;6.07;;
38427;SDS011;24211;49.980;19.776;2023-12-04T06:18:21;14.93;;;6.32;;
38427;SDS011;24211;49.980;19.776;2023-12-04T06:20:53;14.45;;;6.03;;
38427;SDS011;24211;49.980;19.776;2023-12-04T06:23:40;14.80;;;5.75;;
38427;SDS011;24211;49.980;19.776;2023-12-04T06:26:09;14.05;;;5.65;;
38427;SDS011;24211;49.980;19.776;2023-12-04T06:28:44;12.50;;;5.25;;
38427;SDS011;24211;49.980;19.776;2023-12-04T06:31:13;12.40;;;5.43;;
38427;SDS011;24211;49.980;19.776;2023-12-04T06:33:41;13.73;;;5.88;;
38427;SDS011;24211;49.980;19.776;2023-12-04T06:36:10;11.48;;;5.03;;
38427;SDS011;24211;49.980;19.776;2023-12-04T06:38:43;13.30;;;5.45;;
38427;SDS011;24211;49.980;19.776;2023-12-04T06:44:25;12.38;;;5.40;;
38427;SDS011;24211;49.980;19.776;2023-12-04T06:49:50;11.93;;;5.63;;
38427;SDS011;24211;49.980;19.776;2023-12-04T06:56:02;12.25;;;5.65;;
38427;SDS011;24211;49.980;19.776;2023-12-04T06:59:34;14.30;;;5.35;;
38427;SDS011;24211;49.980;19.776;2023-12-04T07:04:54;13.43;;;5.60;;
38427;SDS011;24211;49.980;19.776;2023-12-04T07:10:20;12.00;;;5.43;;
38427;SDS011;24211;49.980;19.776;2023-12-04T07:12:47;13.65;;;5.50;;
38427;SDS011;24211;49.980;19.776;2023-12-04T07:15:19;14.07;;;5.80;;
38427;SDS011;24211;49.980;19.776;2023-12-04T07:17:50;13.13;;;5.50;;
38427;SDS011;24211;49.980;19.776;2023-12-04T07:23:51;13.35;;;5.78;;
38427;SDS011;24211;49.980;19.776;2023-12-04T07:26:21;13.30;;;6.18;;
38427;SDS011;24211;49.980;19.776;2023-12-04T07:28:50;14.23;;;6.63;;
38427;SDS011;24211;49.980;19.776;2023-12-04T07:31:24;14.15;;;5.97;;
38427;SDS011;24211;49.980;19.776;2023-12-04T07:33:53;13.88;;;6.13;;
38427;SDS011;24211;49.980;19.776;2023-12-04T07:36:21;14.82;;;6.03;;
38427;SDS011;24211;49.980;19.776;2023-12-04T07:38:51;16.17;;;7.10;;
38427;SDS011;24211;49.980;19.776;2023-12-04T07:41:20;15.90;;;6.65;;
38427;SDS011;24211;49.980;19.776;2023-12-04T07:44:10;15.55;;;6.88;;
38427;SDS011;24211;49.980;19.776;2023-12-04T07:46:37;16.67;;;7.30;;
38427;SDS011;24211;49.980;19.776;2023-12-04T07:55:15;18.30;;;7.70;;
38427;SDS011;24211;49.980;19.776;2023-12-04T07:57:43;16.40;;;7.43;;
38427;SDS011;24211;49.980;19.776;2023-12-04T08:07:28;20.45;;;8.48;;
38427;SDS011;24211;49.980;19.776;2023-12-04T08:15:23;18.77;;;8.23;;
38427;SDS011;24211;49.980;19.776;2023-12-04T08:17:54;20.27;;;8.55;;
38427;SDS011;24211;49.980;19.776;2023-12-04T08:20:22;18.85;;;8.55;;
38427;SDS011;24211;49.980;19.776;2023-12-04T08:30:07;20.48;;;8.88;;
38427;SDS011;24211;49.980;19.776;2023-12-04T08:32:34;17.52;;;8.15;;
38427;SDS011;24211;49.980;19.776;2023-12-04T08:35:04;19.58;;;8.32;;
38427;SDS011;24211;49.980;19.776;2023-12-04T08:37:32;19.65;;;8.88;;
38427;SDS011;24211;49.980;19.776;2023-12-04T08:40:00;20.77;;;8.75;;
38427;SDS011;24211;49.980;19.776;2023-12-04T08:42:29;21.08;;;9.52;;
38427;SDS011;24211;49.980;19.776;2023-12-04T08:44:57;20.67;;;8.90;;
38427;SDS011;24211;49.980;19.776;2023-12-04T08:47:28;24.20;;;9.98;;
38427;SDS011;24211;49.980;19.776;2023-12-04T08:50:01;23.90;;;10.77;;
38427;SDS011;24211;49.980;19.776;2023-12-04T08:56:14;27.60;;;11.00;;
38427;SDS011;24211;49.980;19.776;2023-12-04T08:58:52;25.38;;;10.35;;
38427;SDS011;24211;49.980;19.776;2023-12-04T09:01:21;21.92;;;9.82;;
38427;SDS011;24211;49.980;19.776;2023-12-04T09:03:48;22.33;;;9.35;;
38427;SDS011;24211;49.980;19.776;2023-12-04T09:06:17;22.52;;;9.48;;
38427;SDS011;24211;49.980;19.776;2023-12-04T09:09:31;21.33;;;9.05;;
38427;SDS011;24211;49.980;19.776;2023-12-04T09:15:38;18.98;;;8.48;;
38427;SDS011;24211;49.980;19.776;2023-12-04T09:18:05;18.27;;;8.00;;
38427;SDS011;24211;49.980;19.776;2023-12-04T09:20:36;17.75;;;7.63;;
38427;SDS011;24211;49.980;19.776;2023-12-04T09:23:04;18.38;;;7.63;;
38427;SDS011;24211;49.980;19.776;2023-12-04T09:25:50;16.92;;;7.30;;
38427;SDS011;24211;49.980;19.776;2023-12-04T09:28:18;17.40;;;7.22;;
38427;SDS011;24211;49.980;19.776;2023-12-04T09:31:09;15.02;;;6.65;;
38427;SDS011;24211;49.980;19.776;2023-12-04T09:33:37;16.42;;;6.65;;
38427;SDS011;24211;49.980;19.776;2023-12-04T09:36:04;16.27;;;6.88;;
38427;SDS011;24211;49.980;19.776;2023-12-04T09:44:19;15.93;;;6.70;;
38427;SDS011;24211;49.980;19.776;2023-12-04T09:47:29;14.00;;;6.38;;
38427;SDS011;24211;49.980;19.776;2023-12-04T09:53:46;14.73;;;6.57;;
38427;SDS011;24211;49.980;19.776;2023-12-04T10:02:11;15.68;;;7.07;;
38427;SDS011;24211;49.980;19.776;2023-12-04T10:04:39;15.15;;;6.35;;
38427;SDS011;24211;49.980;19.776;2023-12-04T10:07:09;12.77;;;6.15;;
38427;SDS011;24211;49.980;19.776;2023-12-04T10:12:59;11.20;;;5.68;;
38427;SDS011;24211;49.980;19.776;2023-12-04T10:15:27;13.57;;;6.15;;
38427;SDS011;24211;49.980;19.776;2023-12-04T10:17:55;13.98;;;6.30;;
38427;SDS011;24211;49.980;19.776;2023-12-04T10:20:24;12.70;;;6.60;;
38427;SDS011;24211;49.980;19.776;2023-12-04T10:25:26;12.57;;;6.13;;
38427;SDS011;24211;49.980;19.776;2023-12-04T10:28:19;13.63;;;6.43;;
38427;SDS011;24211;49.980;19.776;2023-12-04T10:30:47;13.75;;;6.38;;
38427;SDS011;24211;49.980;19.776;2023-12-04T10:33:16;14.70;;;6.30;;
38427;SDS011;24211;49.980;19.776;2023-12-04T10:38:45;14.65;;;6.63;;
38427;SDS011;24211;49.980;19.776;2023-12-04T10:41:21;15.18;;;6.88;;
38427;SDS011;24211;49.980;19.776;2023-12-04T10:43:50;13.57;;;6.32;;
38427;SDS011;24211;49.980;19.776;2023-12-04T10:46:29;15.20;;;6.65;;
38427;SDS011;24211;49.980;19.776;2023-12-04T10:49:00;14.38;;;6.70;;
38427;SDS011;24211;49.980;19.776;2023-12-04T10:51:36;15.05;;;6.53;;
38427;SDS011;24211;49.980;19.776;2023-12-04T10:54:14;16.60;;;6.95;;
38427;SDS011;24211;49.980;19.776;2023-12-04T10:57:16;14.73;;;6.18;;
38427;SDS011;24211;49.980;19.776;2023-12-04T11:00:01;13.43;;;6.25;;
38427;SDS011;24211;49.980;19.776;2023-12-04T11:02:34;12.10;;;5.63;;
38427;SDS011;24211;49.980;19.776;2023-12-04T11:05:20;13.15;;;5.63;;
38427;SDS011;24211;49.980;19.776;2023-12-04T11:08:09;10.63;;;5.43;;
38427;SDS011;24211;49.980;19.776;2023-12-04T11:10:59;12.52;;;5.25;;
38427;SDS011;24211;49.980;19.776;2023-12-04T11:13:42;11.50;;;5.55;;
38427;SDS011;24211;49.980;19.776;2023-12-04T11:16:22;13.75;;;5.28;;
38427;SDS011;24211;49.980;19.776;2023-12-04T11:19:29;10.60;;;4.80;;
38427;SDS011;24211;49.980;19.776;2023-12-04T11:22:26;11.07;;;4.85;;
38427;SDS011;24211;49.980;19.776;2023-12-04T11:25:01;11.93;;;5.45;;
38427;SDS011;24211;49.980;19.776;2023-12-04T11:27:33;10.43;;;4.57;;
38427;SDS011;24211;49.980;19.776;2023-12-04T11:30:11;9.98;;;4.45;;
38427;SDS011;24211;49.980;19.776;2023-12-04T11:32:44;8.57;;;4.38;;
38427;SDS011;24211;49.980;19.776;2023-12-04T11:35:37;8.75;;;4.03;;
38427;SDS011;24211;49.980;19.776;2023-12-04T11:38:18;9.45;;;4.10;;
38427;SDS011;24211;49.980;19.776;2023-12-04T11:40:56;9.73;;;4.10;;
38427;SDS011;24211;49.980;19.776;2023-12-04T11:43:47;9.98;;;4.30;;
38427;SDS011;24211;49.980;19.776;2023-12-04T11:47:05;8.30;;;3.88;;
38427;SDS011;24211;49.980;19.776;2023-12-04T11:49:38;11.27;;;4.55;;
38427;SDS011;24211;49.980;19.776;2023-12-04T11:52:07;8.48;;;4.22;;
38427;SDS011;24211;49.980;19.776;2023-12-04T11:54:56;10.93;;;4.80;;
38427;SDS011;24211;49.980;19.776;2023-12-04T11:57:55;9.45;;;4.50;;
38427;SDS011;24211;49.980;19.776;2023-12-04T12:00:25;9.73;;;4.47;;
38427;SDS011;24211;49.980;19.776;2023-12-04T12:05:49;10.57;;;4.60;;
38427;SDS011;24211;49.980;19.776;2023-12-04T12:08:37;11.63;;;5.32;;
38427;SDS011;24211;49.980;19.776;2023-12-04T12:14:06;18.92;;;9.32;;
38427;SDS011;24211;49.980;19.776;2023-12-04T12:16:34;13.05;;;5.60;;
38427;SDS011;24211;49.980;19.776;2023-12-04T12:19:02;9.80;;;4.68;;
38427;SDS011;24211;49.980;19.776;2023-12-04T12:21:29;10.23;;;4.53;;
38427;SDS011;24211;49.980;19.776;2023-12-04T12:23:57;9.93;;;4.57;;
38427;SDS011;24211;49.980;19.776;2023-12-04T12:26:25;12.15;;;5.00;;
38427;SDS011;24211;49.980;19.776;2023-12-04T12:28:53;11.07;;;4.78;;
38427;SDS011;24211;49.980;19.776;2023-12-04T12:31:21;11.82;;;4.68;;
38427;SDS011;24211;49.980;19.776;2023-12-04T12:33:49;10.80;;;4.45;;
38427;SDS011;24211;49.980;19.776;2023-12-04T12:36:29;10.15;;;4.47;;
38427;SDS011;24211;49.980;19.776;2023-12-04T12:39:00;9.80;;;4.70;;
38427;SDS011;24211;49.980;19.776;2023-12-04T12:41:46;9.15;;;4.13;;
38427;SDS011;24211;49.980;19.776;2023-12-04T12:44:18;11.63;;;5.65;;
38427;SDS011;24211;49.980;19.776;2023-12-04T12:46:47;16.05;;;7.50;;
38427;SDS011;24211;49.980;19.776;2023-12-04T12:49:19;9.82;;;4.68;;
38427;SDS011;24211;49.980;19.776;2023-12-04T12:52:14;18.98;;;8.55;;
38427;SDS011;24211;49.980;19.776;2023-12-04T12:54:46;19.85;;;9.07;;
38427;SDS011;24211;49.980;19.776;2023-12-04T13:00:15;10.13;;;5.00;;
38427;SDS011;24211;49.980;19.776;2023-12-04T13:02:44;8.85;;;4.57;;
38427;SDS011;24211;49.980;19.776;2023-12-04T13:05:12;10.45;;;4.47;;
38427;SDS011;24211;49.980;19.776;2023-12-04T13:07:39;10.57;;;4.68;;
38427;SDS011;24211;49.980;19.776;2023-12-04T13:10:33;10.90;;;4.88;;
38427;SDS011;24211;49.980;19.776;2023-12-04T13:13:01;10.05;;;4.50;;
38427;SDS011;24211;49.980;19.776;2023-12-04T13:18:26;12.85;;;5.95;;
38427;SDS011;24211;49.980;19.776;2023-12-04T13:20:53;16.17;;;6.90;;
38427;SDS011;24211;49.980;19.776;2023-12-04T13:23:25;10.70;;;5.00;;
38427;SDS011;24211;49.980;19.776;2023-12-04T13:25:56;16.27;;;6.97;;
38427;SDS011;24211;49.980;19.776;2023-12-04T13:32:33;8.80;;;4.38;;
38427;SDS011;24211;49.980;19.776;2023-12-04T13:35:02;9.07;;;4.45;;
38427;SDS011;24211;49.980;19.776;2023-12-04T13:37:33;9.50;;;4.53;;
38427;SDS011;24211;49.980;19.776;2023-12-04T13:40:06;10.50;;;4.60;;
38427;SDS011;24211;49.980;19.776;2023-12-04T13:42:53;9.20;;;3.97;;
38427;SDS011;24211;49.980;19.776;2023-12-04T13:45:39;10.75;;;4.93;;
38427;SDS011;24211;49.980;19.776;2023-12-04T13:51:16;9.23;;;4.78;;
38427;SDS011;24211;49.980;19.776;2023-12-04T13:53:44;10.45;;;4.40;;
38427;SDS011;24211;49.980;19.776;2023-12-04T13:56:13;9.48;;;4.15;;
38427;SDS011;24211;49.980;19.776;2023-12-04T13:59:19;12.38;;;4.80;;
38427;SDS011;24211;49.980;19.776;2023-12-04T14:02:03;11.55;;;5.10;;
38427;SDS011;24211;49.980;19.776;2023-12-04T14:04:51;13.35;;;5.50;;
38427;SDS011;24211;49.980;19.776;2023-12-04T14:07:19;15.73;;;6.13;;
38427;SDS011;24211;49.980;19.776;2023-12-04T14:10:10;17.10;;;6.53;;
38427;SDS011;24211;49.980;19.776;2023-12-04T14:12:38;15.75;;;6.43;;
38427;SDS011;24211;49.980;19.776;2023-12-04T14:15:06;18.40;;;7.22;;
38427;SDS011;24211;49.980;19.776;2023-12-04T14:17:34;23.73;;;8.70;;
38427;SDS011;24211;49.980;19.776;2023-12-04T14:20:01;23.77;;;8.40;;
38427;SDS011;24211;49.980;19.776;2023-12-04T14:25:38;23.20;;;9.18;;
38427;SDS011;24211;49.980;19.776;2023-12-04T14:31:48;25.02;;;9.85;;
38427;SDS011;24211;49.980;19.776;2023-12-04T14:34:17;27.02;;;10.23;;
38427;SDS011;24211;49.980;19.776;2023-12-04T14:42:39;22.23;;;9.02;;
38427;SDS011;24211;49.980;19.776;2023-12-04T14:45:06;22.77;;;9.15;;
38427;SDS011;24211;49.980;19.776;2023-12-04T14:50:55;25.55;;;9.73;;
38427;SDS011;24211;49.980;19.776;2023-12-04T14:53:26;20.83;;;8.50;;
38427;SDS011;24211;49.980;19.776;2023-12-04T14:56:37;22.58;;;9.38;;
38427;SDS011;24211;49.980;19.776;2023-12-04T14:59:35;21.63;;;9.45;;
38427;SDS011;24211;49.980;19.776;2023-12-04T15:05:37;21.00;;;9.32;;
38427;SDS011;24211;49.980;19.776;2023-12-04T15:08:05;28.27;;;11.52;;
38427;SDS011;24211;49.980;19.776;2023-12-04T15:11:02;30.48;;;13.05;;
38427;SDS011;24211;49.980;19.776;2023-12-04T15:15:02;50.00;;;19.60;;
38427;SDS011;24211;49.980;19.776;2023-12-04T15:21:09;29.45;;;11.10;;
38427;SDS011;24211;49.980;19.776;2023-12-04T15:23:56;24.42;;;10.50;;
38427;SDS011;24211;49.980;19.776;2023-12-04T15:29:17;28.58;;;11.85;;
38427;SDS011;24211;49.980;19.776;2023-12-04T15:40:52;26.92;;;11.52;;
38427;SDS011;24211;49.980;19.776;2023-12-04T15:44:33;27.58;;;10.82;;
38427;SDS011;24211;49.980;19.776;2023-12-04T15:49:54;31.27;;;13.30;;
38427;SDS011;24211;49.980;19.776;2023-12-04T15:52:22;32.28;;;13.68;;
38427;SDS011;24211;49.980;19.776;2023-12-04T15:54:54;32.70;;;14.52;;
38427;SDS011;24211;49.980;19.776;2023-12-04T15:57:22;47.15;;;19.27;;
38427;SDS011;24211;49.980;19.776;2023-12-04T15:59:53;29.70;;;13.35;;
38427;SDS011;24211;49.980;19.776;2023-12-04T16:02:21;30.98;;;11.98;;
38427;SDS011;24211;49.980;19.776;2023-12-04T16:04:56;29.00;;;13.50;;
38427;SDS011;24211;49.980;19.776;2023-12-04T16:07:47;42.25;;;17.88;;
38427;SDS011;24211;49.980;19.776;2023-12-04T16:10:15;36.50;;;16.27;;
38427;SDS011;24211;49.980;19.776;2023-12-04T16:12:44;33.38;;;15.18;;
38427;SDS011;24211;49.980;19.776;2023-12-04T16:15:15;27.52;;;12.05;;
38427;SDS011;24211;49.980;19.776;2023-12-04T16:20:38;24.52;;;10.52;;
38427;SDS011;24211;49.980;19.776;2023-12-04T16:23:18;18.52;;;8.60;;
38427;SDS011;24211;49.980;19.776;2023-12-04T16:28:54;21.92;;;8.45;;
38427;SDS011;24211;49.980;19.776;2023-12-04T16:31:36;18.15;;;8.02;;
38427;SDS011;24211;49.980;19.776;2023-12-04T16:34:03;23.77;;;11.25;;
38427;SDS011;24211;49.980;19.776;2023-12-04T16:40:39;21.98;;;9.80;;
38427;SDS011;24211;49.980;19.776;2023-12-04T16:43:07;23.08;;;10.20;;
38427;SDS011;24211;49.980;19.776;2023-12-04T16:45:34;21.70;;;9.20;;
38427;SDS011;24211;49.980;19.776;2023-12-04T16:50:59;54.83;;;23.42;;
38427;SDS011;24211;49.980;19.776;2023-12-04T16:56:25;22.73;;;9.55;;
38427;SDS011;24211;49.980;19.776;2023-12-04T16:58:53;43.72;;;18.42;;
38427;SDS011;24211;49.980;19.776;2023-12-04T17:01:21;40.88;;;16.38;;
38427;SDS011;24211;49.980;19.776;2023-12-04T17:07:10;29.63;;;11.68;;
38427;SDS011;24211;49.980;19.776;2023-12-04T17:09:37;26.83;;;11.38;;
38427;SDS011;24211;49.980;19.776;2023-12-04T17:12:06;27.95;;;11.90;;
38427;SDS011;24211;49.980;19.776;2023-12-04T17:14:33;31.58;;;12.02;;
38427;SDS011;24211;49.980;19.776;2023-12-04T17:17:01;35.42;;;15.68;;
38427;SDS011;24211;49.980;19.776;2023-12-04T17:23:38;59.03;;;24.42;;
38427;SDS011;24211;49.980;19.776;2023-12-04T17:26:05;30.52;;;12.80;;
38427;SDS011;24211;49.980;19.776;2023-12-04T17:28:35;28.30;;;11.25;;
38427;SDS011;24211;49.980;19.776;2023-12-04T17:31:10;28.65;;;12.00;;
38427;SDS011;24211;49.980;19.776;2023-12-04T17:41:09;24.77;;;10.35;;
38427;SDS011;24211;49.980;19.776;2023-12-04T17:43:37;26.55;;;11.05;;
38427;SDS011;24211;49.980;19.776;2023-12-04T17:54:44;25.88;;;11.10;;
38427;SDS011;24211;49.980;19.776;2023-12-04T17:57:35;25.48;;;11.30;;
38427;SDS011;24211;49.980;19.776;2023-12-04T18:00:03;28.20;;;11.23;;
38427;SDS011;24211;49.980;19.776;2023-12-04T18:03:26;29.13;;;11.02;;
38427;SDS011;24211;49.980;19.776;2023-12-04T18:09:16;27.55;;;11.65;;
38427;SDS011;24211;49.980;19.776;2023-12-04T18:11:44;27.25;;;11.63;;
38427;SDS011;24211;49.980;19.776;2023-12-04T18:17:31;38.55;;;14.80;;
38427;SDS011;24211;49.980;19.776;2023-12-04T18:22:51;39.60;;;16.02;;